Time;durP1;ratioP1;P1;durP2;ratioP2;P2;SDS_P1;SDS_P2;PMS_P1;PMS_P2;Temp;Humidity;BMP_temperature;BMP_pressure;BME280_temperature;BME280_humidity;BME280_pressure;Samples;Min_cycle;Max_cycle;Signal;HPM_P1;HPM_P2
2021/07/19 00:00:42;;;;;;;6.68;4.82;;;19.60;99.90;;;;;;2104685;28;20028;-70
2021/07/19 00:01:42;;;;;;;5.00;4.50;;;19.60;99.90;;;;;;2112662;28;20043;-69
2021/07/19 00:02:44;;;;;;;6.72;4.60;;;19.60;99.90;;;;;;2113788;28;20023;-69
2021/07/19 00:03:45;;;;;;;6.40;5.00;;;19.60;99.90;;;;;;2113692;28;20069;-69
2021/07/19 00:04:46;;;;;;;7.90;5.07;;;19.50;99.90;;;;;;2113461;28;20448;-69
2021/07/19 00:05:46;;;;;;;8.07;4.93;;;19.50;99.90;;;;;;2113340;28;20035;-70
2021/07/19 00:06:47;;;;;;;5.97;4.88;;;19.60;99.90;;;;;;2113323;28;20023;-69
2021/07/19 00:07:48;;;;;;;7.97;5.25;;;19.60;99.90;;;;;;2113955;28;20106;-70
2021/07/19 00:08:49;;;;;;;7.20;4.88;;;19.60;99.90;;;;;;2115225;28;20023;-70
2021/07/19 00:09:49;;;;;;;7.18;4.90;;;19.60;99.90;;;;;;2115203;28;20433;-69
2021/07/19 00:10:50;;;;;;;5.90;5.00;;;19.60;99.90;;;;;;2114803;28;20381;-69
2021/07/19 00:11:51;;;;;;;6.22;5.10;;;19.60;99.90;;;;;;2115217;28;20028;-69
2021/07/19 00:12:52;;;;;;;6.03;5.03;;;19.60;99.90;;;;;;2115287;28;20416;-69
2021/07/19 00:13:53;;;;;;;5.55;4.90;;;19.60;99.90;;;;;;2115155;28;20576;-69
2021/07/19 00:14:53;;;;;;;6.22;4.78;;;19.60;99.90;;;;;;2113925;28;20031;-69
2021/07/19 00:15:54;;;;;;;9.50;5.13;;;19.60;99.90;;;;;;2114323;28;20043;-70
2021/07/19 00:16:55;;;;;;;7.32;5.25;;;19.60;99.90;;;;;;2115257;28;20536;-68
2021/07/19 00:17:57;;;;;;;7.47;4.93;;;19.60;99.90;;;;;;2115194;28;20110;-69
2021/07/19 00:18:57;;;;;;;7.35;5.07;;;19.60;99.90;;;;;;2115089;28;20513;-68
2021/07/19 00:19:58;;;;;;;7.43;4.95;;;19.60;99.90;;;;;;2115056;28;20027;-69
2021/07/19 00:20:59;;;;;;;5.93;4.95;;;19.60;99.90;;;;;;2114622;28;20044;-68
2021/07/19 00:22:00;;;;;;;6.05;4.90;;;19.60;99.90;;;;;;2115193;28;20047;-70
2021/07/19 00:23:00;;;;;;;5.88;5.25;;;19.60;99.90;;;;;;2115018;28;20502;-69
2021/07/19 00:24:01;;;;;;;5.55;5.00;;;19.50;99.90;;;;;;2114424;28;20118;-70
2021/07/19 00:25:04;;;;;;;8.57;5.53;;;19.50;99.90;;;;;;2113899;28;20028;-70
2021/07/19 00:26:04;;;;;;;6.07;5.40;;;19.50;99.90;;;;;;2114989;28;20487;-72
2021/07/19 00:27:05;;;;;;;6.30;5.15;;;19.50;99.90;;;;;;2114303;28;20176;-73
2021/07/19 00:28:06;;;;;;;7.38;5.30;;;19.50;99.90;;;;;;2114624;28;20028;-70
2021/07/19 00:29:06;;;;;;;6.28;4.80;;;19.50;99.90;;;;;;2115090;28;20059;-70
2021/07/19 00:30:10;;;;;;;7.38;5.47;;;19.40;99.90;;;;;;2115261;28;20098;-69
2021/07/19 00:31:10;;;;;;;5.28;4.78;;;19.40;99.90;;;;;;2114848;28;20039;-69
2021/07/19 00:32:11;;;;;;;5.75;4.95;;;19.40;99.90;;;;;;2115207;28;20055;-70
2021/07/19 00:33:12;;;;;;;10.88;5.10;;;19.40;99.90;;;;;;2114573;28;20031;-69
2021/07/19 00:34:13;;;;;;;7.95;5.80;;;19.40;99.90;;;;;;2106274;28;20057;-69
2021/07/19 00:35:15;;;;;;;8.50;5.68;;;19.40;99.90;;;;;;2114222;28;20382;-71
2021/07/19 00:36:16;;;;;;;7.78;5.30;;;19.30;99.90;;;;;;2106570;28;20029;-70
2021/07/19 00:37:16;;;;;;;6.78;5.10;;;19.30;99.90;;;;;;2114950;28;20090;-71
2021/07/19 00:38:18;;;;;;;7.85;5.22;;;19.40;99.90;;;;;;2122195;28;20043;-69
2021/07/19 00:39:19;;;;;;;7.13;5.30;;;19.30;99.90;;;;;;2122931;28;20034;-71
2021/07/19 00:40:22;;;;;;;8.10;5.43;;;19.30;99.90;;;;;;2112947;28;20016;-71
2021/07/19 00:41:24;;;;;;;6.55;5.60;;;19.30;99.90;;;;;;2105821;28;20066;-71
2021/07/19 00:42:24;;;;;;;7.68;5.28;;;19.20;99.90;;;;;;2105805;28;20051;-71
2021/07/19 00:43:26;;;;;;;8.40;5.25;;;19.20;99.90;;;;;;2116643;28;20145;-69
2021/07/19 00:44:26;;;;;;;7.28;5.40;;;19.20;99.90;;;;;;2115204;28;20036;-71
2021/07/19 00:45:29;;;;;;;7.03;5.50;;;19.20;99.90;;;;;;2113792;28;20453;-70
2021/07/19 00:46:29;;;;;;;6.20;5.60;;;19.20;99.90;;;;;;2105936;28;20028;-70
2021/07/19 00:47:31;;;;;;;6.97;5.15;;;19.20;99.90;;;;;;2105833;28;20034;-71
2021/07/19 00:48:32;;;;;;;8.38;5.10;;;19.10;99.90;;;;;;2114310;28;20034;-69
2021/07/19 00:49:34;;;;;;;6.10;5.30;;;19.10;99.90;;;;;;2114696;28;20027;-70
2021/07/19 00:50:38;;;;;;;6.13;5.03;;;19.10;99.90;;;;;;2114182;28;20024;-70
2021/07/19 00:51:41;;;;;;;6.60;5.25;;;19.10;99.90;;;;;;2113843;28;20106;-70
2021/07/19 00:52:43;;;;;;;7.95;5.72;;;19.00;99.90;;;;;;2113879;28;20020;-70
2021/07/19 00:53:43;;;;;;;8.25;5.22;;;19.00;99.90;;;;;;2114291;28;20088;-71
2021/07/19 00:54:46;;;;;;;5.65;5.05;;;19.00;99.90;;;;;;2105696;28;20024;-70
2021/07/19 00:55:48;;;;;;;6.80;5.65;;;19.00;99.90;;;;;;2097651;28;20059;-70
2021/07/19 00:56:53;;;;;;;6.03;5.40;;;19.00;99.90;;;;;;2114551;28;20011;-70
2021/07/19 00:57:56;;;;;;;10.27;5.63;;;19.00;99.90;;;;;;2114162;28;20470;-70
2021/07/19 00:59:02;;;;;;;7.18;5.00;;;18.90;99.90;;;;;;2114207;28;20055;-69
2021/07/19 01:00:08;;;;;;;6.15;5.55;;;18.90;99.90;;;;;;2097969;28;20035;-70
2021/07/19 01:01:11;;;;;;;7.28;5.80;;;18.90;99.90;;;;;;2098557;28;20048;-71
2021/07/19 01:02:13;;;;;;;6.40;5.45;;;18.90;99.90;;;;;;2114209;28;20487;-70
2021/07/19 01:03:16;;;;;;;7.18;5.38;;;18.90;99.90;;;;;;2114300;28;20058;-70
2021/07/19 01:04:20;;;;;;;6.78;5.70;;;18.90;99.90;;;;;;2113883;28;20466;-70
2021/07/19 01:05:27;;;;;;;6.45;5.50;;;18.90;99.90;;;;;;2105944;28;20455;-71
2021/07/19 01:06:30;;;;;;;7.85;5.65;;;18.90;99.90;;;;;;2106031;28;20039;-69
2021/07/19 01:07:33;;;;;;;7.80;5.22;;;18.90;99.90;;;;;;2114155;28;20057;-70
2021/07/19 01:08:37;;;;;;;7.45;5.68;;;18.80;99.90;;;;;;2113974;28;20229;-69
2021/07/19 01:09:39;;;;;;;6.60;5.30;;;18.90;99.90;;;;;;2105809;28;20035;-69
2021/07/19 01:10:41;;;;;;;7.45;5.60;;;18.90;99.90;;;;;;2113990;28;20028;-70
2021/07/19 01:11:42;;;;;;;9.55;5.55;;;18.90;99.90;;;;;;2114354;28;20043;-70
2021/07/19 01:12:45;;;;;;;7.80;5.45;;;18.90;99.90;;;;;;2113722;28;20016;-69
2021/07/19 01:13:45;;;;;;;6.00;5.30;;;18.90;99.90;;;;;;2106139;28;20499;-71
2021/07/19 01:14:47;;;;;;;7.30;5.47;;;18.90;99.90;;;;;;2106095;28;20109;-72
2021/07/19 01:15:48;;;;;;;7.30;5.60;;;18.90;99.90;;;;;;2106265;28;20065;-70
2021/07/19 01:16:49;;;;;;;8.48;5.43;;;18.90;99.90;;;;;;2114124;28;20074;-72
2021/07/19 01:17:52;;;;;;;8.02;5.43;;;18.90;99.90;;;;;;2106020;28;20529;-71
2021/07/19 01:18:54;;;;;;;6.40;5.20;;;18.90;99.90;;;;;;2097493;28;20025;-71
2021/07/19 01:19:55;;;;;;;6.88;4.95;;;18.90;99.90;;;;;;2105882;28;20028;-72
2021/07/19 01:21:02;;;;;;;8.27;5.28;;;18.90;99.90;;;;;;2114803;28;20020;-71
2021/07/19 01:22:36;;;;;;;10.00;5.70;;;18.90;99.90;;;;;;2105687;28;20122;-72
2021/07/19 01:24:12;;;;;;;6.50;5.30;;;19.00;99.90;;;;;;2107219;28;20055;-71
2021/07/19 01:25:32;;;;;;;7.97;5.47;;;19.00;99.90;;;;;;2109956;28;20024;-71
2021/07/19 01:27:09;;;;;;;6.95;5.00;;;19.00;99.90;;;;;;2108029;28;20110;-70
2021/07/19 01:28:29;;;;;;;5.72;5.13;;;19.00;99.90;;;;;;2113834;28;20028;-70
2021/07/19 01:29:33;;;;;;;7.93;5.65;;;19.00;99.90;;;;;;2114145;28;20114;-70
2021/07/19 01:30:37;;;;;;;9.65;5.47;;;19.00;99.90;;;;;;2114350;28;20047;-71
2021/07/19 01:31:43;;;;;;;6.55;5.85;;;19.00;99.90;;;;;;2105126;28;20036;-70
2021/07/19 01:32:46;;;;;;;8.05;5.70;;;19.00;99.90;;;;;;2102752;28;20515;-71
2021/07/19 01:33:49;;;;;;;9.13;6.13;;;19.10;99.90;;;;;;2096704;28;20029;-70
2021/07/19 01:34:53;;;;;;;11.98;6.18;;;19.10;99.90;;;;;;2096227;28;20484;-71
2021/07/19 01:35:56;;;;;;;8.98;6.10;;;19.10;99.90;;;;;;2097257;28;20028;-72
2021/07/19 01:36:59;;;;;;;6.80;5.25;;;19.10;99.90;;;;;;2089373;28;20027;-72
2021/07/19 01:38:23;;;;;;;6.90;5.50;;;19.20;99.90;;;;;;2097382;28;20497;-72
2021/07/19 01:39:28;;;;;;;12.60;6.10;;;19.20;99.90;;;;;;2113861;28;20530;-71
2021/07/19 01:40:32;;;;;;;9.90;5.95;;;19.20;99.90;;;;;;2113329;28;20507;-72
2021/07/19 01:41:35;;;;;;;12.80;6.07;;;19.20;99.90;;;;;;2113574;28;20060;-72
2021/07/19 01:42:38;;;;;;;9.82;5.70;;;19.20;99.90;;;;;;2113648;28;20134;-72
2021/07/19 01:43:40;;;;;;;7.18;5.32;;;19.20;99.90;;;;;;2113661;28;20024;-71
2021/07/19 01:44:43;;;;;;;7.25;5.30;;;19.30;99.90;;;;;;2113278;28;20024;-70
2021/07/19 01:45:48;;;;;;;10.18;6.00;;;19.30;99.90;;;;;;2105500;28;20020;-69
2021/07/19 01:46:50;;;;;;;9.38;5.70;;;19.30;99.90;;;;;;2105092;28;20032;-70
2021/07/19 01:47:53;;;;;;;8.52;5.40;;;19.30;99.90;;;;;;2104814;28;20081;-69
2021/07/19 01:48:57;;;;;;;12.40;5.60;;;19.30;99.90;;;;;;2113192;28;20031;-70
2021/07/19 01:50:01;;;;;;;8.98;5.53;;;19.30;99.90;;;;;;2103506;28;20127;-70
2021/07/19 01:51:04;;;;;;;7.70;5.10;;;19.30;99.90;;;;;;2101770;28;20100;-70
2021/07/19 01:52:27;;;;;;;8.13;5.43;;;19.30;99.90;;;;;;2096644;28;20024;-70
2021/07/19 01:53:33;;;;;;;8.88;5.50;;;19.30;99.90;;;;;;2091206;28;20125;-71
2021/07/19 01:54:37;;;;;;;10.70;6.20;;;19.30;99.90;;;;;;2089853;28;20032;-70
2021/07/19 01:55:42;;;;;;;10.27;5.80;;;19.30;99.90;;;;;;2105572;28;20031;-72
2021/07/19 01:56:45;;;;;;;6.95;5.55;;;19.30;99.90;;;;;;2113172;28;20012;-70
2021/07/19 01:57:50;;;;;;;10.43;5.68;;;19.30;99.90;;;;;;2105058;28;20024;-71
2021/07/19 01:58:56;;;;;;;8.82;5.55;;;19.30;99.90;;;;;;2104882;28;20024;-71
2021/07/19 01:59:59;;;;;;;8.45;5.63;;;19.30;99.90;;;;;;2097158;28;20040;-71
2021/07/19 02:01:16;;;;;;;10.57;5.82;;;19.30;99.90;;;;;;2104915;28;20055;-70
2021/07/19 02:02:20;;;;;;;7.40;5.82;;;19.30;99.90;;;;;;2105495;28;20024;-70
2021/07/19 02:03:24;;;;;;;11.75;6.03;;;19.30;99.90;;;;;;2113377;28;20066;-70
2021/07/19 02:04:28;;;;;;;9.27;6.00;;;19.20;99.90;;;;;;2103780;28;20644;-70
2021/07/19 02:05:29;;;;;;;11.25;5.90;;;19.30;99.90;;;;;;2088226;28;20041;-70
2021/07/19 02:06:36;;;;;;;9.30;5.80;;;19.30;99.90;;;;;;2105180;28;20050;-72
2021/07/19 02:07:42;;;;;;;9.13;5.95;;;19.30;99.90;;;;;;2104943;28;20023;-71
2021/07/19 02:08:49;;;;;;;9.02;5.80;;;19.30;99.90;;;;;;2105146;28;20225;-71
2021/07/19 02:09:52;;;;;;;9.07;5.82;;;19.30;99.90;;;;;;2097700;28;20041;-72
2021/07/19 02:11:09;;;;;;;15.13;6.38;;;19.40;99.90;;;;;;2098554;28;20040;-72
2021/07/19 02:12:10;;;;;;;9.02;6.25;;;19.40;99.90;;;;;;2096800;28;20036;-72
2021/07/19 02:13:16;;;;;;;10.68;6.22;;;19.40;99.90;;;;;;2105067;28;20028;-72
2021/07/19 02:14:21;;;;;;;11.35;6.55;;;19.40;99.90;;;;;;2104939;28;20027;-71
2021/07/19 02:15:31;;;;;;;9.80;6.50;;;19.30;99.90;;;;;;2104466;28;20031;-72
2021/07/19 02:16:32;;;;;;;10.15;6.20;;;19.30;99.90;;;;;;2113322;28;20028;-71
2021/07/19 02:17:37;;;;;;;11.25;6.40;;;19.30;99.90;;;;;;2112860;28;20031;-69
2021/07/19 02:18:40;;;;;;;11.18;6.35;;;19.30;99.90;;;;;;2104749;28;20027;-70
2021/07/19 02:19:44;;;;;;;10.95;6.28;;;19.40;99.90;;;;;;2096271;28;20411;-70
2021/07/19 02:20:52;;;;;;;11.52;6.15;;;19.30;99.90;;;;;;2089667;28;20025;-70
2021/07/19 02:21:55;;;;;;;8.32;5.75;;;19.40;99.90;;;;;;2104876;28;20034;-70
2021/07/19 02:23:03;;;;;;;9.05;5.90;;;19.30;99.90;;;;;;2104386;28;20035;-70
2021/07/19 02:24:26;;;;;;;15.80;6.32;;;19.40;99.90;;;;;;2105056;28;20118;-70
2021/07/19 02:26:00;;;;;;;7.50;5.78;;;19.40;99.90;;;;;;2097356;28;20016;-70
2021/07/19 02:27:04;;;;;;;11.32;6.00;;;19.40;99.90;;;;;;2104652;28;20447;-71
2021/07/19 02:28:07;;;;;;;10.25;5.85;;;19.40;99.90;;;;;;2096551;28;20040;-70
2021/07/19 02:29:10;;;;;;;10.43;6.05;;;19.40;99.90;;;;;;2096309;28;20025;-69
2021/07/19 02:30:14;;;;;;;7.00;5.95;;;19.40;99.90;;;;;;2096195;28;20040;-71
2021/07/19 02:31:20;;;;;;;8.13;6.15;;;19.40;99.90;;;;;;2104756;28;20040;-70
2021/07/19 02:32:22;;;;;;;8.15;5.95;;;19.30;99.90;;;;;;2113359;28;20063;-71
2021/07/19 02:33:27;;;;;;;8.65;5.68;;;19.30;99.90;;;;;;2113388;28;20480;-72
2021/07/19 02:34:30;;;;;;;9.88;5.78;;;19.30;99.90;;;;;;2105178;28;20549;-70
2021/07/19 02:35:31;;;;;;;10.95;6.00;;;19.30;99.90;;;;;;2103940;28;20031;-71
2021/07/19 02:36:33;;;;;;;11.95;6.13;;;19.30;99.90;;;;;;2104640;28;20203;-70
2021/07/19 02:37:38;;;;;;;9.40;5.95;;;19.20;99.90;;;;;;2112573;28;20384;-71
2021/07/19 02:39:00;;;;;;;7.80;5.68;;;19.30;99.90;;;;;;2109869;28;20032;-71
2021/07/19 02:40:02;;;;;;;12.35;6.00;;;19.30;99.90;;;;;;2105446;28;20104;-72
2021/07/19 02:41:05;;;;;;;10.13;5.82;;;19.30;99.90;;;;;;2113428;28;20046;-71
2021/07/19 02:42:06;;;;;;;7.38;5.40;;;19.30;99.90;;;;;;2113024;28;20027;-72
2021/07/19 02:43:08;;;;;;;11.05;6.57;;;19.30;99.90;;;;;;2105041;28;20391;-71
2021/07/19 02:44:12;;;;;;;10.48;6.38;;;19.30;99.90;;;;;;2096244;28;20523;-70
2021/07/19 02:45:47;;;;;;;11.68;6.45;;;19.30;99.90;;;;;;2089193;28;20036;-70
2021/07/19 02:46:50;;;;;;;10.43;6.30;;;19.30;99.90;;;;;;2104802;28;20012;-69
2021/07/19 02:47:52;;;;;;;12.27;6.65;;;19.30;99.90;;;;;;2096935;28;20123;-71
2021/07/19 02:48:58;;;;;;;10.35;6.40;;;19.30;99.90;;;;;;2091088;28;20036;-70
2021/07/19 02:50:00;;;;;;;8.40;6.22;;;19.30;99.90;;;;;;2098038;28;20025;-71
2021/07/19 02:51:05;;;;;;;12.68;6.38;;;19.30;99.90;;;;;;2101500;28;20054;-70
2021/07/19 02:52:07;;;;;;;10.82;6.43;;;19.30;99.90;;;;;;2096536;28;20111;-70
2021/07/19 02:53:13;;;;;;;8.27;6.28;;;19.30;99.90;;;;;;2097796;28;20025;-72
2021/07/19 02:54:17;;;;;;;12.88;6.43;;;19.30;99.90;;;;;;2096436;28;20392;-70
2021/07/19 02:55:21;;;;;;;9.38;6.00;;;19.30;99.90;;;;;;2088341;28;20032;-72
2021/07/19 02:56:27;;;;;;;9.07;6.68;;;19.30;99.90;;;;;;2104653;28;20395;-70
2021/07/19 02:57:28;;;;;;;10.50;6.80;;;19.30;99.90;;;;;;2105167;28;20032;-73
2021/07/19 02:58:31;;;;;;;11.93;6.40;;;19.30;99.90;;;;;;2104504;28;20050;-73
2021/07/19 02:59:32;;;;;;;15.55;6.40;;;19.30;99.90;;;;;;2104318;28;20107;-72
2021/07/19 03:00:35;;;;;;;8.73;6.38;;;19.30;99.90;;;;;;2105052;28;20026;-72
2021/07/19 03:01:37;;;;;;;11.75;6.72;;;19.30;99.90;;;;;;2103971;28;20105;-70
2021/07/19 03:02:46;;;;;;;10.32;6.43;;;19.30;99.90;;;;;;2103768;28;20467;-70
2021/07/19 03:03:49;;;;;;;12.40;6.88;;;19.30;99.90;;;;;;2104510;28;20031;-69
2021/07/19 03:04:54;;;;;;;12.65;6.75;;;19.30;99.90;;;;;;2104076;28;20027;-70
2021/07/19 03:06:03;;;;;;;14.25;6.78;;;19.30;99.90;;;;;;2097169;28;20047;-70
2021/07/19 03:07:06;;;;;;;11.50;6.50;;;19.20;99.90;;;;;;2104126;28;20028;-71
2021/07/19 03:08:11;;;;;;;9.98;6.35;;;19.20;99.90;;;;;;2103813;28;20087;-71
2021/07/19 03:09:33;;;;;;;9.20;5.95;;;19.20;99.90;;;;;;2104520;28;20039;-70
2021/07/19 03:10:35;;;;;;;11.45;6.60;;;19.20;99.90;;;;;;2096281;28;20024;-71
2021/07/19 03:11:40;;;;;;;10.75;6.05;;;19.20;99.90;;;;;;2104298;28;20027;-71
2021/07/19 03:12:42;;;;;;;11.90;6.25;;;19.20;99.90;;;;;;2105258;28;20020;-70
2021/07/19 03:13:48;;;;;;;9.70;5.68;;;19.20;99.90;;;;;;2105305;28;20028;-71
2021/07/19 03:14:53;;;;;;;11.70;6.07;;;19.20;99.90;;;;;;2104544;28;20391;-71
2021/07/19 03:15:57;;;;;;;11.20;6.00;;;19.20;99.90;;;;;;2104642;28;20028;-71
2021/07/19 03:16:58;;;;;;;11.18;5.95;;;19.20;99.90;;;;;;2096742;28;20092;-70
2021/07/19 03:18:02;;;;;;;8.43;5.70;;;19.20;99.90;;;;;;2096232;28;20063;-72
2021/07/19 03:19:08;;;;;;;11.55;6.30;;;19.20;99.90;;;;;;2096816;28;20028;-72
2021/07/19 03:20:09;;;;;;;10.73;6.18;;;19.20;99.90;;;;;;2097011;28;20028;-72
2021/07/19 03:21:15;;;;;;;9.05;5.60;;;19.20;99.90;;;;;;2096415;28;20020;-72
2021/07/19 03:22:23;;;;;;;9.63;5.72;;;19.20;99.90;;;;;;2097605;28;20527;-72
2021/07/19 03:23:36;;;;;;;7.53;5.72;;;19.20;99.90;;;;;;2097007;28;20028;-72
2021/07/19 03:24:37;;;;;;;6.95;5.20;;;19.20;99.90;;;;;;2104762;28;20121;-71
2021/07/19 03:25:40;;;;;;;10.82;5.85;;;19.20;99.90;;;;;;2104291;28;20356;-72
2021/07/19 03:26:42;;;;;;;8.63;5.88;;;19.20;99.90;;;;;;2104482;28;20029;-72
2021/07/19 03:27:43;;;;;;;12.02;6.13;;;19.20;99.90;;;;;;2104542;28;20462;-72
2021/07/19 03:28:45;;;;;;;12.95;6.07;;;19.10;99.90;;;;;;2104521;28;20484;-71
2021/07/19 03:29:47;;;;;;;8.57;5.90;;;19.20;99.90;;;;;;2104407;28;20024;-72
2021/07/19 03:30:52;;;;;;;10.35;6.13;;;19.10;99.90;;;;;;2096680;28;20031;-72
2021/07/19 03:31:53;;;;;;;6.97;5.70;;;19.10;99.90;;;;;;2096457;28;20064;-72
2021/07/19 03:32:57;;;;;;;9.85;5.80;;;19.10;99.90;;;;;;2096294;28;20028;-70
2021/07/19 03:34:00;;;;;;;10.02;5.90;;;19.20;99.90;;;;;;2089215;28;20036;-70
2021/07/19 03:35:03;;;;;;;11.10;6.22;;;19.20;99.90;;;;;;2104634;28;20054;-71
2021/07/19 03:36:12;;;;;;;10.75;6.00;;;19.20;99.90;;;;;;2104637;28;20028;-71
2021/07/19 03:37:15;;;;;;;8.23;5.85;;;19.20;99.90;;;;;;2104893;28;20020;-70
2021/07/19 03:38:19;;;;;;;8.55;6.00;;;19.20;99.90;;;;;;2104745;28;20832;-70
2021/07/19 03:39:59;;;;;;;8.98;5.50;;;19.20;99.90;;;;;;2095870;28;20036;-71
2021/07/19 03:41:01;;;;;;;8.93;5.53;;;19.20;99.90;;;;;;2101716;28;20056;-71
2021/07/19 03:42:06;;;;;;;7.75;6.13;;;19.20;99.90;;;;;;2096601;28;20122;-71
2021/07/19 03:43:12;;;;;;;6.10;4.90;;;19.20;99.90;;;;;;2097225;28;20024;-71
2021/07/19 03:44:16;;;;;;;8.38;5.40;;;19.20;99.90;;;;;;2090775;28;20036;-71
2021/07/19 03:45:18;;;;;;;8.80;5.50;;;19.20;99.90;;;;;;2097870;28;20038;-69
2021/07/19 03:46:22;;;;;;;9.82;5.60;;;19.30;99.90;;;;;;2098158;28;20028;-70
2021/07/19 03:47:23;;;;;;;9.32;5.43;;;19.20;99.90;;;;;;2106235;28;20542;-71
2021/07/19 03:48:30;;;;;;;7.97;5.78;;;19.20;99.90;;;;;;2106311;28;20031;-69
2021/07/19 03:49:32;;;;;;;10.75;5.80;;;19.30;99.90;;;;;;2106170;28;20566;-70
2021/07/19 03:50:35;;;;;;;10.25;5.85;;;19.30;99.90;;;;;;2098878;28;20021;-69
2021/07/19 03:51:36;;;;;;;8.77;5.40;;;19.20;99.90;;;;;;2097912;28;20028;-70
2021/07/19 03:52:41;;;;;;;11.52;5.38;;;19.20;99.90;;;;;;2106128;28;20020;-71
2021/07/19 03:53:42;;;;;;;9.48;6.00;;;19.20;99.90;;;;;;2106083;28;20038;-71
2021/07/19 03:54:43;;;;;;;8.65;5.60;;;19.20;99.90;;;;;;2106197;28;20023;-69
2021/07/19 03:55:48;;;;;;;7.10;5.45;;;19.20;99.90;;;;;;2106259;28;20499;-70
2021/07/19 03:56:50;;;;;;;10.20;5.50;;;19.20;99.90;;;;;;2105903;28;20469;-69
2021/07/19 03:57:53;;;;;;;9.18;5.78;;;19.20;99.90;;;;;;2097772;28;20017;-69
2021/07/19 03:58:58;;;;;;;7.15;5.70;;;19.20;99.90;;;;;;2105972;28;20094;-70
2021/07/19 04:00:00;;;;;;;7.22;5.78;;;19.20;99.90;;;;;;2106196;28;20047;-68
2021/07/19 04:01:15;;;;;;;10.90;5.95;;;19.30;99.90;;;;;;2106235;28;20024;-69
2021/07/19 04:02:17;;;;;;;8.00;5.32;;;19.30;99.90;;;;;;2105899;28;20025;-69
2021/07/19 04:03:26;;;;;;;9.65;5.57;;;19.30;99.90;;;;;;2105917;28;20024;-68
2021/07/19 04:04:37;;;;;;;11.00;6.07;;;19.20;99.90;;;;;;2106252;28;20051;-67
2021/07/19 04:05:41;;;;;;;12.32;5.75;;;19.30;99.90;;;;;;2106511;28;20028;-69
2021/07/19 04:06:51;;;;;;;11.52;6.18;;;19.30;99.90;;;;;;2106229;28;20016;-68
2021/07/19 04:07:54;;;;;;;9.13;5.55;;;19.20;99.90;;;;;;2106245;28;20031;-68
2021/07/19 04:08:58;;;;;;;11.15;5.68;;;19.20;99.90;;;;;;2105926;28;20078;-69
2021/07/19 04:10:30;;;;;;;12.15;6.18;;;19.20;99.90;;;;;;2106322;28;20039;-69
2021/07/19 04:11:32;;;;;;;10.00;5.78;;;19.20;99.90;;;;;;2103653;28;20036;-70
2021/07/19 04:12:44;;;;;;;8.25;5.90;;;19.20;99.90;;;;;;2106707;28;20028;-69
2021/07/19 04:13:46;;;;;;;8.85;5.65;;;19.20;99.90;;;;;;2106224;28;20026;-71
2021/07/19 04:14:48;;;;;;;10.07;5.88;;;19.20;99.90;;;;;;2106576;28;20016;-69
2021/07/19 04:15:51;;;;;;;6.97;5.68;;;19.20;99.90;;;;;;2098432;28;20033;-69
2021/07/19 04:16:54;;;;;;;9.70;6.00;;;19.30;99.90;;;;;;2106652;28;20028;-70
2021/07/19 04:17:55;;;;;;;10.10;5.80;;;19.30;99.90;;;;;;2097907;28;20071;-71
2021/07/19 04:19:04;;;;;;;11.00;6.25;;;19.30;99.90;;;;;;2099136;28;20021;-71
2021/07/19 04:20:08;;;;;;;7.45;5.13;;;19.20;99.90;;;;;;2106135;28;20054;-71
2021/07/19 04:21:12;;;;;;;9.23;5.60;;;19.20;99.90;;;;;;2106121;28;20111;-70
2021/07/19 04:22:16;;;;;;;8.18;5.60;;;19.30;99.90;;;;;;2106020;28;20043;-70
2021/07/19 04:23:34;;;;;;;8.35;5.60;;;19.20;99.90;;;;;;2099854;28;20467;-73
2021/07/19 04:24:50;;;;;;;9.80;5.70;;;19.30;99.90;;;;;;2105852;28;20027;-71
2021/07/19 04:25:52;;;;;;;10.73;5.35;;;19.30;99.90;;;;;;2106528;28;20021;-69
2021/07/19 04:26:55;;;;;;;9.38;5.50;;;19.30;99.90;;;;;;2105837;28;20511;-72
2021/07/19 04:27:57;;;;;;;10.18;5.72;;;19.30;99.90;;;;;;2106511;28;20028;-70
2021/07/19 04:29:01;;;;;;;11.30;5.90;;;19.30;99.90;;;;;;2106807;28;20030;-71
2021/07/19 04:30:10;;;;;;;8.35;5.80;;;19.30;99.90;;;;;;2105859;28;20032;-71
2021/07/19 04:31:25;;;;;;;8.07;5.57;;;19.20;99.90;;;;;;2099734;28;20036;-71
2021/07/19 04:32:31;;;;;;;9.15;5.20;;;19.20;99.90;;;;;;2098098;28;20021;-70
2021/07/19 04:33:32;;;;;;;9.50;5.97;;;19.20;99.90;;;;;;2097622;28;20039;-69
2021/07/19 04:34:34;;;;;;;9.55;5.75;;;19.20;99.90;;;;;;2105997;28;20028;-69
2021/07/19 04:35:45;;;;;;;8.52;5.53;;;19.20;99.90;;;;;;2105578;28;20020;-68
2021/07/19 04:36:47;;;;;;;10.23;5.47;;;19.20;99.90;;;;;;2105880;28;20429;-70
2021/07/19 04:37:50;;;;;;;7.57;5.28;;;19.20;99.90;;;;;;2106398;28;20031;-71
2021/07/19 04:38:56;;;;;;;7.25;5.85;;;19.30;99.90;;;;;;2106152;28;20031;-72
2021/07/19 04:39:58;;;;;;;8.95;5.65;;;19.30;99.90;;;;;;2105982;28;20024;-70
2021/07/19 04:41:00;;;;;;;9.43;5.68;;;19.20;99.90;;;;;;2097540;28;20074;-70
2021/07/19 04:42:05;;;;;;;7.80;5.32;;;19.20;99.90;;;;;;2105845;28;20032;-70
2021/07/19 04:43:07;;;;;;;8.00;5.47;;;19.20;99.90;;;;;;2106041;28;20165;-69
2021/07/19 04:44:07;;;;;;;8.07;5.15;;;19.20;99.90;;;;;;2107168;28;20589;-71
2021/07/19 04:45:09;;;;;;;10.90;5.70;;;19.30;99.90;;;;;;2107396;28;20064;-72
2021/07/19 04:46:13;;;;;;;10.73;5.63;;;19.20;99.90;;;;;;2106615;28;20455;-71
2021/07/19 04:47:14;;;;;;;8.40;5.85;;;19.20;99.90;;;;;;2098292;28;20012;-71
2021/07/19 04:48:15;;;;;;;8.18;5.80;;;19.30;99.90;;;;;;2106129;28;20074;-71
2021/07/19 04:49:17;;;;;;;8.90;5.97;;;19.30;99.90;;;;;;2106582;28;20032;-71
2021/07/19 04:50:19;;;;;;;10.25;6.10;;;19.20;99.90;;;;;;2105654;28;20438;-71
2021/07/19 04:51:44;;;;;;;11.77;5.45;;;19.20;99.90;;;;;;2105878;28;20491;-71
2021/07/19 04:52:45;;;;;;;8.30;5.80;;;19.20;99.90;;;;;;2105861;28;20032;-68
2021/07/19 04:53:48;;;;;;;13.75;6.03;;;19.20;99.90;;;;;;2105416;28;20016;-69
2021/07/19 04:54:50;;;;;;;10.48;5.85;;;19.20;99.90;;;;;;2106388;28;20024;-70
2021/07/19 04:55:53;;;;;;;9.93;5.85;;;19.20;99.90;;;;;;2105959;28;20047;-68
2021/07/19 04:56:59;;;;;;;8.10;5.35;;;19.20;99.90;;;;;;2105812;28;20056;-69
2021/07/19 04:58:01;;;;;;;7.07;5.70;;;19.10;99.90;;;;;;2106615;28;20024;-69
2021/07/19 04:59:04;;;;;;;7.53;5.70;;;19.20;99.90;;;;;;2106856;28;20051;-68
2021/07/19 05:00:06;;;;;;;9.52;6.00;;;19.20;99.90;;;;;;2106057;28;20081;-69
2021/07/19 05:01:09;;;;;;;12.77;6.20;;;19.20;99.90;;;;;;2098303;28;20258;-69
2021/07/19 05:02:15;;;;;;;10.65;6.32;;;19.20;99.90;;;;;;2099786;28;20126;-69
2021/07/19 05:03:18;;;;;;;11.65;6.43;;;19.20;99.90;;;;;;2108142;28;20421;-68
2021/07/19 05:04:24;;;;;;;13.63;6.68;;;19.10;99.90;;;;;;2108554;28;20012;-69
2021/07/19 05:05:27;;;;;;;10.45;6.18;;;19.10;99.90;;;;;;2109134;28;20043;-70
2021/07/19 05:06:29;;;;;;;9.90;6.30;;;19.10;99.90;;;;;;2108588;28;20024;-70
2021/07/19 05:07:32;;;;;;;11.77;7.05;;;19.00;99.90;;;;;;2106763;28;20035;-69
2021/07/19 05:08:36;;;;;;;13.90;6.72;;;18.90;99.90;;;;;;2106900;28;20024;-68
2021/07/19 05:09:41;;;;;;;10.77;6.55;;;18.90;99.90;;;;;;2106319;28;20111;-69
2021/07/19 05:10:43;;;;;;;14.02;6.70;;;18.90;99.90;;;;;;2106517;28;20053;-69
2021/07/19 05:11:45;;;;;;;11.90;6.72;;;18.80;99.90;;;;;;2106167;28;20383;-70
2021/07/19 05:12:49;;;;;;;12.60;6.70;;;18.80;99.90;;;;;;2106345;28;20021;-69
2021/07/19 05:13:51;;;;;;;10.40;6.60;;;18.80;99.90;;;;;;2105512;28;20031;-69
2021/07/19 05:14:52;;;;;;;9.55;7.15;;;18.80;99.90;;;;;;2105425;28;20126;-69
2021/07/19 05:15:54;;;;;;;10.02;6.85;;;18.80;99.90;;;;;;2105342;28;20129;-69
2021/07/19 05:16:57;;;;;;;10.35;7.10;;;18.70;99.90;;;;;;2105514;28;20032;-68
2021/07/19 05:17:58;;;;;;;10.07;6.80;;;18.70;99.90;;;;;;2105652;28;20268;-70
2021/07/19 05:19:00;;;;;;;11.57;6.68;;;18.70;99.90;;;;;;2097122;28;20027;-69
2021/07/19 05:20:02;;;;;;;13.20;8.55;;;18.80;99.90;;;;;;2097249;28;20097;-71
2021/07/19 05:21:03;;;;;;;15.82;7.45;;;18.70;99.90;;;;;;2105752;28;20028;-71
2021/07/19 05:22:16;;;;;;;11.88;6.90;;;18.70;99.90;;;;;;2106171;28;20078;-70
2021/07/19 05:23:22;;;;;;;12.15;7.28;;;18.70;99.90;;;;;;2105607;28;20145;-71
2021/07/19 05:24:32;;;;;;;12.05;7.57;;;18.70;99.90;;;;;;2105482;28;20384;-71
2021/07/19 05:25:34;;;;;;;13.18;7.38;;;18.70;99.90;;;;;;2105280;28;20071;-71
2021/07/19 05:26:36;;;;;;;10.32;7.40;;;18.70;99.90;;;;;;2105332;28;20024;-71
2021/07/19 05:27:37;;;;;;;11.93;7.10;;;18.60;99.90;;;;;;2105989;28;20087;-71
2021/07/19 05:28:38;;;;;;;10.60;7.30;;;18.70;99.90;;;;;;2106189;28;20464;-70
2021/07/19 05:29:39;;;;;;;10.90;7.20;;;18.60;99.90;;;;;;2106052;28;20024;-71
2021/07/19 05:30:45;;;;;;;10.98;7.18;;;18.60;99.90;;;;;;2105437;28;20051;-71
2021/07/19 05:31:45;;;;;;;13.38;7.57;;;18.60;99.90;;;;;;2105169;28;20031;-71
2021/07/19 05:32:50;;;;;;;9.60;7.53;;;18.60;99.90;;;;;;2105997;28;20050;-70
2021/07/19 05:33:51;;;;;;;11.80;7.05;;;18.60;99.90;;;;;;2105187;28;20043;-71
2021/07/19 05:34:52;;;;;;;12.80;7.60;;;18.60;99.90;;;;;;2105118;28;20479;-71